Time;durP1;ratioP1;P1;durP2;ratioP2;P2;SDS_P1;SDS_P2;PMS_P1;PMS_P2;Temp;Humidity;BMP_temperature;BMP_pressure;BME280_temperature;BME280_humidity;BME280_pressure;Samples;Min_cycle;Max_cycle;Signal;HPM_P1;HPM_P2
2024/01/21 00:00:29;;;;;;;11.35;8.75;;;;;;;;;;5079162;28;20399;-79
2024/01/21 00:02:55;;;;;;;9.85;8.60;;;;;;;;;;5079343;28;20412;-79
2024/01/21 00:05:21;;;;;;;9.88;8.63;;;;;;;;;;5078739;28;20383;-79
2024/01/21 00:07:47;;;;;;;10.10;9.00;;;;;;;;;;5078437;28;20745;-79
2024/01/21 00:10:13;;;;;;;11.00;8.90;;;;;;;;;;5078583;28;20880;-79
2024/01/21 00:12:39;;;;;;;10.35;9.25;;;;;;;;;;5076282;28;20372;-78
2024/01/21 00:15:05;;;;;;;10.20;8.57;;;;;;;;;;5077693;28;20382;-79
2024/01/21 00:17:31;;;;;;;9.48;8.15;;;;;;;;;;5059888;28;20453;-79
2024/01/21 00:19:57;;;;;;;11.27;9.03;;;;;;;;;;5078661;28;20423;-79
2024/01/21 00:22:23;;;;;;;11.10;9.02;;;;;;;;;;5077994;28;20426;-79
2024/01/21 00:24:49;;;;;;;12.48;9.07;;;;;;;;;;5078130;28;20383;-79
2024/01/21 00:27:15;;;;;;;11.73;8.85;;;;;;;;;;5078027;28;20466;-79
2024/01/21 00:29:41;;;;;;;10.45;8.93;;;;;;;;;;5078479;28;20379;-79
2024/01/21 00:32:07;;;;;;;11.13;8.85;;;;;;;;;;5078058;28;20817;-79
2024/01/21 00:34:33;;;;;;;9.18;8.27;;;;;;;;;;5078266;28;20388;-79
2024/01/21 00:36:59;;;;;;;11.35;9.50;;;;;;;;;;5078490;28;20417;-79
2024/01/21 00:39:25;;;;;;;11.45;9.73;;;;;;;;;;5078406;28;20502;-79
2024/01/21 00:41:51;;;;;;;11.25;9.50;;;;;;;;;;5077983;28;20404;-79
2024/01/21 00:44:23;;;;;;;10.88;9.02;;;;;;;;;;5077985;28;20394;-79
2024/01/21 00:46:50;;;;;;;10.27;9.18;;;;;;;;;;5077783;28;20846;-79
2024/01/21 00:49:27;;;;;;;11.43;8.88;;;;;;;;;;5083461;28;20375;-79
2024/01/21 00:51:53;;;;;;;11.52;10.27;;;;;;;;;;5063456;28;20400;-79
2024/01/21 00:54:19;;;;;;;11.57;10.38;;;;;;;;;;5082971;28;20467;-79
2024/01/21 00:56:45;;;;;;;12.30;8.63;;;;;;;;;;5082710;28;20466;-79
2024/01/21 00:59:11;;;;;;;9.77;8.77;;;;;;;;;;5081545;28;20487;-79
2024/01/21 01:01:38;;;;;;;9.68;8.60;;;;;;;;;;5082290;28;20403;-79
2024/01/21 01:04:05;;;;;;;10.65;8.48;;;;;;;;;;5081417;28;20765;-79
2024/01/21 01:06:31;;;;;;;10.75;8.70;;;;;;;;;;5081206;28;20406;-79
2024/01/21 01:08:57;;;;;;;9.30;8.30;;;;;;;;;;5080374;28;20538;-79
2024/01/21 01:11:24;;;;;;;11.32;8.85;;;;;;;;;;5080888;28;20946;-79
2024/01/21 01:13:50;;;;;;;10.38;9.07;;;;;;;;;;5080928;28;20410;-79
2024/01/21 01:16:16;;;;;;;10.63;8.65;;;;;;;;;;5062170;28;20391;-79
2024/01/21 01:18:43;;;;;;;9.38;7.85;;;;;;;;;;5079432;28;20392;-79
2024/01/21 01:21:12;;;;;;;10.03;8.30;;;;;;;;;;5079181;28;20892;-79
2024/01/21 01:23:38;;;;;;;10.45;8.10;;;;;;;;;;5079337;28;20391;-79
2024/01/21 01:26:04;;;;;;;9.15;7.97;;;;;;;;;;5077646;28;20383;-79
2024/01/21 01:28:31;;;;;;;9.35;8.02;;;;;;;;;;5078357;28;20427;-79
2024/01/21 01:30:57;;;;;;;10.07;7.70;;;;;;;;;;5078436;28;20741;-79
2024/01/21 01:33:24;;;;;;;10.23;8.53;;;;;;;;;;5078834;28;20466;-79
2024/01/21 01:35:50;;;;;;;11.10;8.55;;;;;;;;;;5078919;28;20387;-79
2024/01/21 01:38:16;;;;;;;10.18;8.70;;;;;;;;;;5077946;28;20388;-79
2024/01/21 01:40:43;;;;;;;11.50;8.95;;;;;;;;;;5079087;28;20882;-79
2024/01/21 01:43:09;;;;;;;9.43;8.18;;;;;;;;;;5078664;28;20483;-79
2024/01/21 01:45:35;;;;;;;8.90;7.75;;;;;;;;;;5079031;28;20778;-79
2024/01/21 01:48:02;;;;;;;8.90;7.80;;;;;;;;;;5079016;28;20383;-79
2024/01/21 01:50:30;;;;;;;10.33;8.37;;;;;;;;;;5077979;28;20861;-79
2024/01/21 01:52:56;;;;;;;9.40;8.32;;;;;;;;;;5078317;28;20730;-79
2024/01/21 01:55:22;;;;;;;11.00;8.40;;;;;;;;;;5078222;28;20410;-79
2024/01/21 01:57:48;;;;;;;10.43;8.23;;;;;;;;;;5078377;28;20391;-79
2024/01/21 02:00:15;;;;;;;11.07;8.48;;;;;;;;;;5078031;28;20411;-79
2024/01/21 02:02:41;;;;;;;8.70;7.80;;;;;;;;;;5077497;28;20835;-79
2024/01/21 02:05:08;;;;;;;9.83;8.17;;;;;;;;;;5078562;28;20383;-79
2024/01/21 02:07:34;;;;;;;10.55;8.20;;;;;;;;;;5078467;28;20391;-79
2024/01/21 02:10:01;;;;;;;9.43;8.27;;;;;;;;;;5078419;28;20458;-79
2024/01/21 02:12:27;;;;;;;10.13;8.30;;;;;;;;;;5078796;28;20378;-79
2024/01/21 02:14:53;;;;;;;10.20;8.50;;;;;;;;;;5079155;28;20451;-79
2024/01/21 02:17:19;;;;;;;8.50;7.35;;;;;;;;;;5059835;28;20425;-79
2024/01/21 02:19:45;;;;;;;9.70;7.78;;;;;;;;;;5059854;28;20715;-79
2024/01/21 02:22:12;;;;;;;9.63;8.50;;;;;;;;;;5058151;28;20413;-79
2024/01/21 02:24:39;;;;;;;9.33;8.10;;;;;;;;;;5060402;28;20378;-79
2024/01/21 02:27:05;;;;;;;10.57;8.30;;;;;;;;;;5061934;28;20853;-79
2024/01/21 02:29:31;;;;;;;9.48;8.48;;;;;;;;;;5061865;28;20391;-79
2024/01/21 02:31:57;;;;;;;9.45;8.43;;;;;;;;;;5061059;28;20437;-79
2024/01/21 02:34:23;;;;;;;9.67;8.67;;;;;;;;;;5060300;28;20460;-79
2024/01/21 02:36:49;;;;;;;9.88;8.30;;;;;;;;;;5041637;28;20448;-79
2024/01/21 02:39:16;;;;;;;9.98;8.30;;;;;;;;;;5059619;28;20405;-79
2024/01/21 02:41:42;;;;;;;8.70;7.80;;;;;;;;;;5059156;28;20486;-79
2024/01/21 02:44:08;;;;;;;11.15;8.25;;;;;;;;;;5059036;28;20389;-79
2024/01/21 02:46:34;;;;;;;10.95;7.97;;;;;;;;;;5068206;28;20388;-79
2024/01/21 02:49:00;;;;;;;10.25;8.20;;;;;;;;;;5079372;28;20376;-79
2024/01/21 02:51:26;;;;;;;11.15;8.40;;;;;;;;;;5079524;28;20368;-79
2024/01/21 02:53:52;;;;;;;9.25;8.05;;;;;;;;;;5079474;28;20462;-79
2024/01/21 02:56:22;;;;;;;9.20;8.27;;;;;;;;;;5079563;28;20745;-79
2024/01/21 02:58:49;;;;;;;8.95;8.05;;;;;;;;;;5078260;28;20920;-79
2024/01/21 03:01:16;;;;;;;9.13;8.20;;;;;;;;;;5079477;28;20968;-79
2024/01/21 03:03:42;;;;;;;10.27;8.00;;;;;;;;;;5078489;28;20443;-79
2024/01/21 03:06:08;;;;;;;9.45;8.07;;;;;;;;;;5078267;28;20869;-79
2024/01/21 03:08:34;;;;;;;9.57;8.07;;;;;;;;;;5079485;28;20465;-79
2024/01/21 03:11:00;;;;;;;10.02;8.48;;;;;;;;;;5078820;28;20380;-79
2024/01/21 03:13:26;;;;;;;8.60;7.60;;;;;;;;;;5078786;28;20421;-79
2024/01/21 03:15:53;;;;;;;9.32;8.32;;;;;;;;;;5078971;28;20387;-79
2024/01/21 03:18:19;;;;;;;10.10;7.90;;;;;;;;;;5078638;28;20386;-79
2024/01/21 03:20:46;;;;;;;9.20;7.53;;;;;;;;;;5081474;28;20387;-79
2024/01/21 03:23:12;;;;;;;9.93;7.63;;;;;;;;;;5082552;28;20400;-79
2024/01/21 03:25:38;;;;;;;10.83;8.33;;;;;;;;;;5083565;28;20826;-79
2024/01/21 03:28:04;;;;;;;9.60;7.53;;;;;;;;;;5083560;28;20472;-79
2024/01/21 03:30:30;;;;;;;9.53;8.20;;;;;;;;;;5083059;28;20876;-80
2024/01/21 03:32:56;;;;;;;12.98;8.32;;;;;;;;;;5084170;28;20463;-79
2024/01/21 03:35:22;;;;;;;9.35;8.38;;;;;;;;;;5087843;28;20399;-79
2024/01/21 03:37:48;;;;;;;9.65;7.85;;;;;;;;;;5090757;28;20392;-79
2024/01/21 03:40:14;;;;;;;9.45;8.27;;;;;;;;;;5089148;28;20451;-79
2024/01/21 03:42:40;;;;;;;9.80;7.83;;;;;;;;;;5087124;28;20792;-79
2024/01/21 03:45:06;;;;;;;9.43;8.07;;;;;;;;;;5085994;28;20384;-79
2024/01/21 03:47:32;;;;;;;10.38;8.02;;;;;;;;;;5085909;28;20408;-79
2024/01/21 03:49:58;;;;;;;10.27;7.90;;;;;;;;;;5084901;28;20380;-79
2024/01/21 03:52:24;;;;;;;8.95;7.75;;;;;;;;;;5084612;28;20395;-79
2024/01/21 03:54:50;;;;;;;10.07;7.95;;;;;;;;;;5084449;28;20425;-79
2024/01/21 03:57:16;;;;;;;9.20;8.23;;;;;;;;;;5084401;28;20384;-79
2024/01/21 03:59:43;;;;;;;10.63;7.45;;;;;;;;;;5084056;28;21084;-79
2024/01/21 04:02:09;;;;;;;10.45;7.57;;;;;;;;;;5084007;28;20471;-79
2024/01/21 04:04:34;;;;;;;7.87;7.07;;;;;;;;;;5083547;28;20407;-79
2024/01/21 04:07:00;;;;;;;9.18;7.60;;;;;;;;;;5083402;28;20379;-79
2024/01/21 04:09:27;;;;;;;8.40;7.57;;;;;;;;;;5083560;28;20779;-79
2024/01/21 04:11:52;;;;;;;10.15;7.13;;;;;;;;;;5083849;28;20760;-79
2024/01/21 04:14:18;;;;;;;8.67;7.23;;;;;;;;;;5081444;28;20409;-79
2024/01/21 04:16:44;;;;;;;8.55;6.88;;;;;;;;;;5082809;28;20380;-80
2024/01/21 04:19:12;;;;;;;7.80;7.00;;;;;;;;;;5083316;28;20437;-80
2024/01/21 04:21:38;;;;;;;8.90;7.35;;;;;;;;;;5082630;28;20946;-79
2024/01/21 04:24:04;;;;;;;10.48;7.13;;;;;;;;;;5082754;28;20371;-79
2024/01/21 04:26:33;;;;;;;8.95;7.70;;;;;;;;;;5064432;28;20384;-79
2024/01/21 04:28:59;;;;;;;9.23;6.90;;;;;;;;;;5081925;28;20885;-79
2024/01/21 04:31:25;;;;;;;7.78;6.97;;;;;;;;;;5081192;28;20390;-79
2024/01/21 04:33:51;;;;;;;7.90;7.10;;;;;;;;;;5082743;28;20372;-79
2024/01/21 04:36:18;;;;;;;7.97;7.18;;;;;;;;;;5082149;28;20760;-79
2024/01/21 04:38:44;;;;;;;10.35;6.55;;;;;;;;;;5081713;28;20383;-79
2024/01/21 04:41:10;;;;;;;7.95;6.45;;;;;;;;;;5081683;28;20414;-79
2024/01/21 04:43:36;;;;;;;8.82;6.57;;;;;;;;;;5080820;28;20368;-79
2024/01/21 04:46:02;;;;;;;8.35;6.68;;;;;;;;;;5080348;28;20868;-79
2024/01/21 04:48:28;;;;;;;8.02;6.45;;;;;;;;;;5077555;28;20396;-79
2024/01/21 04:50:54;;;;;;;7.57;6.72;;;;;;;;;;5080807;28;20448;-79
2024/01/21 04:53:20;;;;;;;7.10;6.40;;;;;;;;;;5081247;28;20380;-79
2024/01/21 04:55:46;;;;;;;7.20;6.50;;;;;;;;;;5081689;28;20455;-79
2024/01/21 04:58:12;;;;;;;8.18;6.28;;;;;;;;;;5080727;28;20955;-79
2024/01/21 05:00:38;;;;;;;7.65;6.68;;;;;;;;;;5080408;28;20396;-79
2024/01/21 05:03:04;;;;;;;7.03;5.95;;;;;;;;;;5081093;28;20419;-79
2024/01/21 05:05:30;;;;;;;7.95;6.15;;;;;;;;;;5080748;28;20463;-79
2024/01/21 05:07:56;;;;;;;8.75;6.72;;;;;;;;;;5079887;28;20411;-79
2024/01/21 05:10:23;;;;;;;9.85;8.85;;;;;;;;;;5079610;28;20368;-79
2024/01/21 05:12:49;;;;;;;9.20;7.32;;;;;;;;;;5080045;28;20829;-79
2024/01/21 05:15:15;;;;;;;8.43;7.22;;;;;;;;;;5080308;28;20376;-79
2024/01/21 05:17:41;;;;;;;7.43;6.63;;;;;;;;;;5079150;28;20383;-79
2024/01/21 05:20:08;;;;;;;7.18;6.45;;;;;;;;;;5080262;28;20387;-79
2024/01/21 05:22:34;;;;;;;7.32;6.63;;;;;;;;;;5062034;28;20403;-79
2024/01/21 05:25:00;;;;;;;9.25;7.35;;;;;;;;;;5079756;28;20380;-79
2024/01/21 05:27:26;;;;;;;9.00;6.85;;;;;;;;;;5080090;28;20738;-79
2024/01/21 05:29:52;;;;;;;8.25;7.00;;;;;;;;;;5080187;28;20504;-79
2024/01/21 05:32:18;;;;;;;7.65;6.72;;;;;;;;;;5080453;28;20387;-79
2024/01/21 05:34:44;;;;;;;9.95;7.43;;;;;;;;;;5079807;28;20383;-79
2024/01/21 05:37:10;;;;;;;7.38;6.68;;;;;;;;;;5079174;28;20743;-79
2024/01/21 05:39:36;;;;;;;8.20;7.40;;;;;;;;;;5079602;28;20388;-79
2024/01/21 05:42:06;;;;;;;7.63;6.85;;;;;;;;;;5078690;28;20403;-79
2024/01/21 05:44:32;;;;;;;8.32;7.03;;;;;;;;;;5079699;28;21214;-79
2024/01/21 05:46:58;;;;;;;8.45;7.40;;;;;;;;;;5079054;28;20387;-79
2024/01/21 05:49:25;;;;;;;8.13;7.10;;;;;;;;;;5078823;28;20380;-79
2024/01/21 05:51:51;;;;;;;7.93;7.10;;;;;;;;;;5078883;28;20372;-79
2024/01/21 05:54:17;;;;;;;8.15;7.00;;;;;;;;;;5079038;28;20376;-79
2024/01/21 05:56:43;;;;;;;8.15;7.20;;;;;;;;;;5077848;28;20474;-79
2024/01/21 05:59:09;;;;;;;8.38;6.82;;;;;;;;;;5077307;28;20481;-79
2024/01/21 06:01:37;;;;;;;7.80;6.75;;;;;;;;;;5077647;28;20517;-79
2024/01/21 06:04:03;;;;;;;8.75;7.15;;;;;;;;;;5077773;28;20380;-79
2024/01/21 06:06:29;;;;;;;7.82;6.75;;;;;;;;;;5078375;28;20451;-79
2024/01/21 06:08:55;;;;;;;8.10;7.28;;;;;;;;;;5077380;28;20376;-79
2024/01/21 06:11:21;;;;;;;8.13;6.82;;;;;;;;;;5058566;28;20415;-79
2024/01/21 06:13:47;;;;;;;9.32;6.97;;;;;;;;;;5066910;28;20397;-79
2024/01/21 06:16:16;;;;;;;9.35;6.90;;;;;;;;;;5067655;28;20377;-79
2024/01/21 06:18:43;;;;;;;7.70;6.95;;;;;;;;;;5065929;28;20396;-79
2024/01/21 06:21:09;;;;;;;9.50;7.00;;;;;;;;;;5063591;28;20462;-79
2024/01/21 06:23:35;;;;;;;9.80;7.28;;;;;;;;;;5063664;28;20468;-79
2024/01/21 06:26:01;;;;;;;8.10;6.77;;;;;;;;;;5063541;28;20377;-79
2024/01/21 06:28:27;;;;;;;9.73;7.88;;;;;;;;;;5063334;28;20387;-79
2024/01/21 06:30:53;;;;;;;8.13;7.32;;;;;;;;;;5063150;28;20397;-79
2024/01/21 06:33:19;;;;;;;7.20;6.50;;;;;;;;;;5062416;28;20401;-79
2024/01/21 06:35:45;;;;;;;9.10;7.30;;;;;;;;;;5061283;28;20397;-79
2024/01/21 06:38:11;;;;;;;10.68;7.88;;;;;;;;;;5061833;28;20373;-79
2024/01/21 06:40:37;;;;;;;8.02;7.20;;;;;;;;;;5060828;28;20377;-79
2024/01/21 06:43:03;;;;;;;8.70;7.68;;;;;;;;;;5077210;28;20403;-79
2024/01/21 06:45:29;;;;;;;8.38;6.45;;;;;;;;;;5081033;28;20454;-79
2024/01/21 06:47:55;;;;;;;8.40;7.07;;;;;;;;;;5080828;28;20388;-79
2024/01/21 06:50:21;;;;;;;7.40;6.45;;;;;;;;;;5079974;28;20384;-79
2024/01/21 06:52:49;;;;;;;7.50;6.53;;;;;;;;;;5080397;28;20383;-78
2024/01/21 06:55:15;;;;;;;7.50;6.70;;;;;;;;;;5084454;28;20953;-78
2024/01/21 06:57:41;;;;;;;8.00;7.20;;;;;;;;;;5084686;28;20883;-78
2024/01/21 07:00:07;;;;;;;8.00;7.07;;;;;;;;;;5083619;28;20873;-78
2024/01/21 07:02:33;;;;;;;7.50;6.70;;;;;;;;;;5083007;28;20488;-78
2024/01/21 07:04:59;;;;;;;7.95;6.72;;;;;;;;;;5083220;28;20408;-78
2024/01/21 07:07:25;;;;;;;11.88;7.93;;;;;;;;;;5083797;28;20412;-78
2024/01/21 07:09:51;;;;;;;8.48;7.68;;;;;;;;;;5082833;28;20454;-78
2024/01/21 07:12:17;;;;;;;8.07;7.10;;;;;;;;;;5083368;28;20429;-78
2024/01/21 07:14:43;;;;;;;8.25;7.38;;;;;;;;;;5083707;28;20439;-78
2024/01/21 07:17:10;;;;;;;9.05;7.70;;;;;;;;;;5083277;28;20375;-78
2024/01/21 07:19:36;;;;;;;8.75;7.70;;;;;;;;;;5082508;28;20440;-78
2024/01/21 07:22:03;;;;;;;9.57;8.68;;;;;;;;;;5083241;28;20457;-78
2024/01/21 07:24:29;;;;;;;9.80;8.50;;;;;;;;;;5082528;28;20776;-78
2024/01/21 07:26:55;;;;;;;8.50;7.70;;;;;;;;;;5082154;28;20429;-78
2024/01/21 07:29:20;;;;;;;9.27;7.93;;;;;;;;;;5081975;28;20384;-78
2024/01/21 07:31:47;;;;;;;10.65;8.82;;;;;;;;;;5063799;28;20387;-78
2024/01/21 07:34:13;;;;;;;8.95;8.05;;;;;;;;;;5082836;28;20398;-79
2024/01/21 07:36:39;;;;;;;12.45;9.40;;;;;;;;;;5081491;28;20752;-78
2024/01/21 07:39:05;;;;;;;10.48;8.55;;;;;;;;;;5082225;28;20380;-78
2024/01/21 07:41:32;;;;;;;9.53;8.53;;;;;;;;;;5076474;28;20402;-78
2024/01/21 07:43:59;;;;;;;9.67;8.70;;;;;;;;;;5057492;28;20453;-78
2024/01/21 07:46:25;;;;;;;9.07;8.18;;;;;;;;;;5076121;28;20375;-78
2024/01/21 07:48:50;;;;;;;10.05;8.07;;;;;;;;;;5076592;28;20454;-78
2024/01/21 07:51:18;;;;;;;9.00;8.10;;;;;;;;;;5079479;28;20470;-78
2024/01/21 07:53:44;;;;;;;11.27;9.55;;;;;;;;;;5077872;28;20380;-79
2024/01/21 07:56:10;;;;;;;10.38;9.27;;;;;;;;;;5076000;28;20416;-78
2024/01/21 07:58:36;;;;;;;10.05;9.15;;;;;;;;;;5076546;28;20400;-78
2024/01/21 08:01:03;;;;;;;10.88;8.65;;;;;;;;;;5076317;28;20396;-78
2024/01/21 08:03:29;;;;;;;10.55;9.45;;;;;;;;;;5080073;28;20411;-78
2024/01/21 08:05:56;;;;;;;12.15;10.05;;;;;;;;;;5060593;28;20384;-77
2024/01/21 08:08:22;;;;;;;15.30;12.45;;;;;;;;;;5075046;28;20459;-78
2024/01/21 08:10:48;;;;;;;11.27;10.15;;;;;;;;;;5074352;28;20423;-77
2024/01/21 08:13:14;;;;;;;12.13;10.85;;;;;;;;;;5072829;28;20383;-77
2024/01/21 08:15:40;;;;;;;13.20;11.80;;;;;;;;;;5074116;28;20475;-77
2024/01/21 08:18:07;;;;;;;12.70;11.38;;;;;;;;;;5074014;28;20379;-77
2024/01/21 08:20:33;;;;;;;11.05;9.77;;;;;;;;;;5077330;28;20379;-78
2024/01/21 08:23:00;;;;;;;12.50;11.20;;;;;;;;;;5078802;28;20430;-78
2024/01/21 08:25:26;;;;;;;13.90;12.02;;;;;;;;;;5078441;28;20405;-78
2024/01/21 08:27:52;;;;;;;16.27;12.30;;;;;;;;;;5078015;28;20376;-78
2024/01/21 08:30:19;;;;;;;16.23;12.48;;;;;;;;;;5077944;28;20829;-78
2024/01/21 08:32:45;;;;;;;18.23;14.93;;;;;;;;;;5078905;28;20459;-78
2024/01/21 08:35:11;;;;;;;18.77;16.48;;;;;;;;;;5078360;28;20872;-78
2024/01/21 08:37:37;;;;;;;25.40;19.15;;;;;;;;;;5077170;28;20695;-78
2024/01/21 08:40:04;;;;;;;24.02;18.63;;;;;;;;;;5076462;28;20390;-78
2024/01/21 08:42:30;;;;;;;24.93;18.90;;;;;;;;;;5077958;28;20460;-78
2024/01/21 08:44:56;;;;;;;24.33;18.55;;;;;;;;;;5076855;28;20477;-78
2024/01/21 08:47:22;;;;;;;25.50;20.07;;;;;;;;;;5076434;28;20471;-78
2024/01/21 08:49:48;;;;;;;24.65;20.02;;;;;;;;;;5072230;28;20414;-78
2024/01/21 08:52:14;;;;;;;26.93;19.80;;;;;;;;;;5075726;28;20872;-78
2024/01/21 08:54:40;;;;;;;22.15;17.92;;;;;;;;;;5075421;28;20392;-80
2024/01/21 08:57:06;;;;;;;24.33;19.67;;;;;;;;;;5074479;28;20420;-80
2024/01/21 08:59:32;;;;;;;22.27;17.95;;;;;;;;;;5074900;28;20429;-80
2024/01/21 09:01:58;;;;;;;23.92;18.77;;;;;;;;;;5074883;28;20407;-80
2024/01/21 09:04:24;;;;;;;21.08;18.15;;;;;;;;;;5075108;28;20383;-80
2024/01/21 09:06:50;;;;;;;24.42;18.67;;;;;;;;;;5074850;28;20872;-80
2024/01/21 09:09:16;;;;;;;22.17;18.25;;;;;;;;;;5074868;28;20418;-80
2024/01/21 09:11:42;;;;;;;24.17;19.30;;;;;;;;;;5074966;28;20412;-80
2024/01/21 09:14:08;;;;;;;25.80;19.77;;;;;;;;;;5074353;28;20415;-80
2024/01/21 09:16:35;;;;;;;25.63;19.48;;;;;;;;;;5055455;28;20478;-80
2024/01/21 09:19:01;;;;;;;25.30;19.88;;;;;;;;;;5074490;28;20869;-80
2024/01/21 09:21:27;;;;;;;23.70;19.50;;;;;;;;;;5074584;28;20412;-80
2024/01/21 09:24:01;;;;;;;25.08;19.83;;;;;;;;;;5074698;28;20446;-80
2024/01/21 09:26:27;;;;;;;24.88;20.25;;;;;;;;;;5056651;28;20384;-80
2024/01/21 09:28:53;;;;;;;26.67;20.47;;;;;;;;;;5074241;28;20398;-79
2024/01/21 09:31:19;;;;;;;26.27;19.25;;;;;;;;;;5074211;28;20727;-80
2024/01/21 09:33:45;;;;;;;26.48;19.77;;;;;;;;;;5073280;28;20511;-79
2024/01/21 09:36:11;;;;;;;26.15;20.42;;;;;;;;;;5073564;28;20384;-79
2024/01/21 09:38:37;;;;;;;25.95;20.30;;;;;;;;;;5073757;28;20734;-81
2024/01/21 09:41:09;;;;;;;25.27;20.38;;;;;;;;;;5073614;28;20845;-79
2024/01/21 09:43:40;;;;;;;30.00;22.20;;;;;;;;;;5055510;28;20380;-80
2024/01/21 09:46:06;;;;;;;23.52;18.73;;;;;;;;;;5073713;28;20383;-80
2024/01/21 09:48:32;;;;;;;24.02;19.52;;;;;;;;;;5072858;28;20380;-80
2024/01/21 09:50:59;;;;;;;22.70;18.45;;;;;;;;;;5073468;28;20533;-79
2024/01/21 09:53:25;;;;;;;26.83;19.67;;;;;;;;;;5073797;28;20879;-79
2024/01/21 09:55:55;;;;;;;22.07;18.00;;;;;;;;;;5073531;28;20462;-79
2024/01/21 09:58:21;;;;;;;24.07;18.07;;;;;;;;;;5073370;28;20412;-80
2024/01/21 10:00:49;;;;;;;21.50;17.08;;;;;;;;;;5073186;28;20874;-79
2024/01/21 10:03:15;;;;;;;23.20;18.35;;;;;;;;;;5072903;28;20483;-79
2024/01/21 10:05:41;;;;;;;27.23;17.88;;;;;;;;;;5073023;28;20430;-80
2024/01/21 10:08:09;;;;;;;28.02;20.17;;;;;;;;;;5072801;28;20380;-79
2024/01/21 10:10:34;;;;;;;22.40;17.92;;;;;;;;;;5072951;28;20406;-79
2024/01/21 10:13:00;;;;;;;20.08;16.90;;;;;;;;;;5072762;28;20387;-79
2024/01/21 10:15:29;;;;;;;21.95;17.95;;;;;;;;;;5072396;28;20375;-79
2024/01/21 10:17:55;;;;;;;25.23;18.30;;;;;;;;;;5072265;28;20376;-79
2024/01/21 10:20:21;;;;;;;24.40;18.10;;;;;;;;;;5073135;28;20884;-79
2024/01/21 10:22:48;;;;;;;22.02;17.73;;;;;;;;;;5072896;28;20399;-79
2024/01/21 10:25:14;;;;;;;20.80;17.10;;;;;;;;;;5073006;28;20428;-79
2024/01/21 10:27:40;;;;;;;19.17;16.75;;;;;;;;;;5073506;28;20371;-79
2024/01/21 10:30:08;;;;;;;20.67;17.75;;;;;;;;;;5058956;28;20924;-79
2024/01/21 10:32:35;;;;;;;21.85;16.80;;;;;;;;;;5076904;28;20391;-79
2024/01/21 10:35:01;;;;;;;22.73;17.73;;;;;;;;;;5076623;28;20379;-79
2024/01/21 10:37:28;;;;;;;24.80;17.73;;;;;;;;;;5076813;28;20729;-79
2024/01/21 10:39:55;;;;;;;22.20;17.13;;;;;;;;;;5076541;28;20386;-79
2024/01/21 10:42:21;;;;;;;18.90;16.37;;;;;;;;;;5076303;28;20414;-79
2024/01/21 10:44:47;;;;;;;23.02;17.15;;;;;;;;;;5076295;28;20372;-79
2024/01/21 10:47:13;;;;;;;20.65;16.85;;;;;;;;;;5063236;28;20735;-80
2024/01/21 10:49:40;;;;;;;24.73;16.92;;;;;;;;;;5056745;28;20443;-79
2024/01/21 10:52:11;;;;;;;22.48;16.95;;;;;;;;;;5056560;28;20389;-79
2024/01/21 10:54:37;;;;;;;27.23;17.70;;;;;;;;;;5056393;28;20867;-79
2024/01/21 10:57:04;;;;;;;31.58;17.48;;;;;;;;;;5056156;28;20420;-80
2024/01/21 10:59:31;;;;;;;19.60;15.65;;;;;;;;;;5056139;28;20401;-80
2024/01/21 11:01:57;;;;;;;20.57;15.80;;;;;;;;;;5056434;28;20504;-80
2024/01/21 11:04:23;;;;;;;18.55;16.25;;;;;;;;;;5056207;28;20784;-80
2024/01/21 11:06:51;;;;;;;28.10;16.70;;;;;;;;;;5056657;28;20420;-80
2024/01/21 11:09:21;;;;;;;22.33;16.38;;;;;;;;;;5056754;28;20870;-80
2024/01/21 11:11:49;;;;;;;29.83;16.75;;;;;;;;;;5056163;28;20432;-80
2024/01/21 11:14:35;;;;;;;22.48;16.92;;;;;;;;;;5056443;28;20385;-80
2024/01/21 11:17:03;;;;;;;19.55;14.60;;;;;;;;;;5056321;28;20466;-80
2024/01/21 11:19:45;;;;;;;19.00;15.50;;;;;;;;;;5056196;28;20483;-80
2024/01/21 11:22:11;;;;;;;16.23;13.90;;;;;;;;;;5056394;28;20469;-81
2024/01/21 11:24:37;;;;;;;22.10;14.75;;;;;;;;;;5056185;28;20463;-80
2024/01/21 11:27:03;;;;;;;24.40;14.55;;;;;;;;;;5055950;28;20378;-81
2024/01/21 11:29:30;;;;;;;20.50;13.45;;;;;;;;;;5056373;28;20866;-80
2024/01/21 11:32:04;;;;;;;14.97;13.17;;;;;;;;;;5073726;28;20796;-80
2024/01/21 11:34:36;;;;;;;19.02;13.98;;;;;;;;;;5076557;28;20383;-80
2024/01/21 11:37:03;;;;;;;19.83;14.73;;;;;;;;;;5076216;28;21143;-80
2024/01/21 11:39:29;;;;;;;18.67;14.10;;;;;;;;;;5057344;28;20436;-80
2024/01/21 11:41:55;;;;;;;16.80;14.40;;;;;;;;;;5075865;28;20893;-80
2024/01/21 11:44:22;;;;;;;17.27;14.55;;;;;;;;;;5076185;28;20380;-80
2024/01/21 11:46:49;;;;;;;26.70;15.25;;;;;;;;;;5075969;28;20379;-80
2024/01/21 11:49:15;;;;;;;21.08;14.25;;;;;;;;;;5076006;28;20384;-80
2024/01/21 11:51:41;;;;;;;17.60;14.25;;;;;;;;;;5075768;28;20376;-80
2024/01/21 11:54:08;;;;;;;19.88;14.15;;;;;;;;;;5075804;28;20470;-80
2024/01/21 11:56:37;;;;;;;15.02;13.35;;;;;;;;;;5075844;28;20835;-80
2024/01/21 11:59:06;;;;;;;19.65;14.13;;;;;;;;;;5075771;28;20494;-80
2024/01/21 12:01:33;;;;;;;18.27;14.20;;;;;;;;;;5075690;28;20403;-80
2024/01/21 12:04:01;;;;;;;18.95;14.63;;;;;;;;;;5075655;28;20474;-80
2024/01/21 12:06:27;;;;;;;17.65;14.68;;;;;;;;;;5075487;28;20495;-80
2024/01/21 12:08:53;;;;;;;45.28;16.20;;;;;;;;;;5075277;28;20383;-80
2024/01/21 12:11:19;;;;;;;16.05;12.88;;;;;;;;;;5074803;28;20384;-80
2024/01/21 12:13:45;;;;;;;14.82;12.70;;;;;;;;;;5074166;28;20388;-80
2024/01/21 12:16:11;;;;;;;15.57;13.15;;;;;;;;;;5075248;28;20788;-80
2024/01/21 12:18:41;;;;;;;14.48;12.38;;;;;;;;;;5056689;28;20784;-80
2024/01/21 12:21:07;;;;;;;19.45;14.05;;;;;;;;;;5074828;28;20429;-80
2024/01/21 12:23:35;;;;;;;16.23;14.05;;;;;;;;;;5075259;28;20873;-80
2024/01/21 12:26:01;;;;;;;15.65;13.75;;;;;;;;;;5075412;28;20424;-80
2024/01/21 12:28:27;;;;;;;24.92;14.23;;;;;;;;;;5057201;28;20428;-80
2024/01/21 12:30:54;;;;;;;15.50;13.52;;;;;;;;;;5075099;28;20478;-80
2024/01/21 12:33:20;;;;;;;14.98;12.77;;;;;;;;;;5075195;28;20387;-80
2024/01/21 12:35:47;;;;;;;31.88;18.23;;;;;;;;;;5074775;28;20394;-80
2024/01/21 12:38:15;;;;;;;20.38;15.60;;;;;;;;;;5072836;28;20380;-80
2024/01/21 12:40:42;;;;;;;14.90;12.82;;;;;;;;;;5074122;28;20398;-80
2024/01/21 12:43:09;;;;;;;18.50;13.60;;;;;;;;;;5074996;28;20399;-80
2024/01/21 12:45:36;;;;;;;15.15;13.55;;;;;;;;;;5074942;28;20379;-80
2024/01/21 12:48:02;;;;;;;16.45;13.90;;;;;;;;;;5074839;28;20804;-80
2024/01/21 12:50:28;;;;;;;15.80;13.02;;;;;;;;;;5074353;28;20384;-80
2024/01/21 12:52:55;;;;;;;14.07;12.57;;;;;;;;;;5074001;28;20810;-80
2024/01/21 12:55:22;;;;;;;15.48;12.38;;;;;;;;;;5074663;28;20464;-80
2024/01/21 12:57:49;;;;;;;13.85;12.45;;;;;;;;;;5074405;28;20424;-80
2024/01/21 13:00:15;;;;;;;23.35;13.32;;;;;;;;;;5074438;28;20490;-80
2024/01/21 13:02:41;;;;;;;18.10;12.88;;;;;;;;;;5074265;28;20446;-80
2024/01/21 13:05:07;;;;;;;14.77;12.00;;;;;;;;;;5074780;28;20841;-80
2024/01/21 13:07:33;;;;;;;14.70;12.30;;;;;;;;;;5074617;28;20434;-80
2024/01/21 13:09:59;;;;;;;14.45;12.70;;;;;;;;;;5074514;28;20713;-80
2024/01/21 13:12:27;;;;;;;17.15;13.57;;;;;;;;;;5074528;28;20472;-80
2024/01/21 13:14:53;;;;;;;16.23;14.18;;;;;;;;;;5074461;28;20867;-80
2024/01/21 13:17:18;;;;;;;16.73;13.65;;;;;;;;;;5074000;28;20388;-80
2024/01/21 13:19:44;;;;;;;14.27;12.88;;;;;;;;;;5074066;28;20520;-80
2024/01/21 13:22:10;;;;;;;13.80;12.25;;;;;;;;;;5073775;28;20410;-80
2024/01/21 13:24:36;;;;;;;15.40;13.77;;;;;;;;;;5073835;28;20837;-80
2024/01/21 13:27:09;;;;;;;14.07;12.63;;;;;;;;;;5073948;28;20371;-80
2024/01/21 13:32:20;;;;;;;13.77;12.02;;;;;;;;;;5073816;28;20439;-80
2024/01/21 13:34:46;;;;;;;14.00;12.55;;;;;;;;;;5073994;28;20376;-80
2024/01/21 13:37:12;;;;;;;15.55;12.20;;;;;;;;;;5073619;28;20429;-80
2024/01/21 13:39:42;;;;;;;14.02;11.90;;;;;;;;;;5074201;28;20422;-80
2024/01/21 13:42:08;;;;;;;13.30;11.90;;;;;;;;;;5056118;28;20459;-80
2024/01/21 13:44:34;;;;;;;14.40;12.80;;;;;;;;;;5074618;28;20376;-80
2024/01/21 13:47:00;;;;;;;14.32;12.77;;;;;;;;;;5073631;28;20773;-80
2024/01/21 13:49:26;;;;;;;13.35;11.80;;;;;;;;;;5073421;28;20379;-80
2024/01/21 13:51:52;;;;;;;12.77;11.48;;;;;;;;;;5073406;28;20379;-80
2024/01/21 13:54:19;;;;;;;12.93;11.60;;;;;;;;;;5073451;28;20415;-80
2024/01/21 13:56:46;;;;;;;13.23;11.88;;;;;;;;;;5073002;28;20440;-80
2024/01/21 13:59:12;;;;;;;13.73;12.15;;;;;;;;;;5072855;28;20952;-80
2024/01/21 14:01:38;;;;;;;13.45;11.90;;;;;;;;;;5073204;28;20468;-80
2024/01/21 14:04:04;;;;;;;13.32;11.48;;;;;;;;;;5072509;28;20454;-79
2024/01/21 14:06:30;;;;;;;12.48;11.18;;;;;;;;;;5072671;28;20372;-79
2024/01/21 14:08:56;;;;;;;12.95;11.55;;;;;;;;;;5072883;28;20374;-80
2024/01/21 14:11:22;;;;;;;11.65;10.52;;;;;;;;;;5073299;28;20371;-80
2024/01/21 14:13:48;;;;;;;12.73;11.50;;;;;;;;;;5072793;28;20453;-81
2024/01/21 14:16:14;;;;;;;12.50;10.95;;;;;;;;;;5072761;28;20399;-80
2024/01/21 14:18:40;;;;;;;11.63;10.43;;;;;;;;;;5072988;28;20518;-80
2024/01/21 14:21:06;;;;;;;13.73;11.50;;;;;;;;;;5063798;28;20380;-81
2024/01/21 14:23:32;;;;;;;12.55;11.05;;;;;;;;;;5052816;28;20370;-81
2024/01/21 14:26:06;;;;;;;11.83;10.73;;;;;;;;;;5053094;28;20400;-81